Norwegian Gem — C6VG8 — position and weather

sailwx.info

Track history (hours):
 
Tides and Currents Weather Stations Pressure Air Temp Water Temp Dewpoint Dewpoint Depression Visibility Wind Speed Wind Dir Waves Ship Positions

Norwegian Gem (Bahamas)

Last reported at 2018-Feb-21 03:30 UTC. Time now 2018-Feb-21 17:41 UTC.
Position N 17°56' W 063°44'.

Length 294 m; draft 8.6 m.

Type: Ship. MMSI: 309951000.

Date/timePositionNaut miles runAvg speedWind from/ knotsBaromVisibWave heightAir tempDewpointWater temp
2018-Feb-21 03:30N 17°56' W 063°44'1723.2
2018-Feb-21 02:46N 17°51' W 063°26'922.9
2018-Feb-21 02:22N 17°48' W 063°17'923.2
2018-Feb-21 01:59N 17°44' W 063°09'1423.0
2018-Feb-21 01:23N 17°38' W 062°56'2323.0
2018-Feb-21 00:24N 17°29' W 062°34'922.7
2018-Feb-21 00:00N 17°26' W 062°25'1122.6
2018-Feb-20 23:30N 17°19' W 062°16'1122.9
2018-Feb-20 23:00N 17°14' W 062°05'1121.9
2018-Feb-20 22:30N 17°09' W 061°55'4 7.9
2018-Feb-20 22:00N 17°07' W 061°51'0 0.6
2018-Feb-20 21:30N 17°07' W 061°51'0 0.0
2018-Feb-20 21:00N 17°07' W 061°51'0 0.0
2018-Feb-20 20:30N 17°07' W 061°51'0 0.0
2018-Feb-20 20:00N 17°07' W 061°51'0 0.0
2018-Feb-20 19:30N 17°07' W 061°51'0 0.0
2018-Feb-20 19:00N 17°07' W 061°51'0 0.0
2018-Feb-20 18:30N 17°07' W 061°51'0 0.0
2018-Feb-20 18:00N 17°07' W 061°51'0 0.0
2018-Feb-20 17:30N 17°07' W 061°51'0 0.0
2018-Feb-20 17:00N 17°07' W 061°51'0 0.0
2018-Feb-20 16:30N 17°07' W 061°51'0 0.0
2018-Feb-20 16:00N 17°07' W 061°51'0 0.0
2018-Feb-20 15:30N 17°07' W 061°51'0 0.0
2018-Feb-20 15:00N 17°07' W 061°51'0 0.0
2018-Feb-20 14:30N 17°07' W 061°51'0 0.0
2018-Feb-20 14:00N 17°07' W 061°51'0 0.4
2018-Feb-20 13:30N 17°07' W 061°51'3 6.9
2018-Feb-20 13:00N 17°09' W 061°54'816.4
2018-Feb-20 12:30N 17°11' W 062°03'917.2
2018-Feb-20 11:59N 17°03' W 062°07'1122.5
2018-Feb-20 11:30N 16°52' W 062°04'1122.5
2018-Feb-20 11:00N 16°41' W 062°02'1121.1
2018-Feb-20 10:30N 16°30' W 062°03'1019.3
2018-Feb-20 10:00N 16°21' W 062°04'1119.8
2018-Feb-20 09:28N 16°10' W 062°03'9020.8
2018-Feb-20 05:09N 14°44' W 061°35'820.6
2018-Feb-20 04:44N 14°36' W 061°33'521.2
2018-Feb-20 04:30N 14°31' W 061°31'6325.1
2018-Feb-20 02:00N 13°36' W 061°00'4 8.6 070 / 271016.1 5.4 25.0 28.0
2018-Feb-20 01:33N 13°34' W 060°56'28 1.2
2018-Feb-19 03:00N 13°24' W 060°30'47 4.8 030 / 381014.1 5.4 25.0 28.0
2018-Feb-18 17:22N 14°01' W 060°59'0 0.0
2018-Feb-18 16:04N 14°01' W 060°59'0 0.0
2018-Feb-18 15:36N 14°01' W 060°59'0 0.0
2018-Feb-18 15:16N 14°01' W 060°59'0 0.0
2018-Feb-18 14:48N 14°01' W 060°59'0 0.0
2018-Feb-18 11:11N 14°01' W 060°59'0 1.8
2018-Feb-18 10:57N 14°01' W 060°60'4 9.0
2018-Feb-18 10:29N 14°03' W 061°03'815.3
2018-Feb-18 10:00N 14°07' W 061°10'815.4
2018-Feb-18 09:30N 14°14' W 061°14'917.3
2018-Feb-18 08:59N 14°22' W 061°18'1020.4
2018-Feb-18 08:31N 14°30' W 061°23'1120.9
2018-Feb-18 07:58N 14°40' W 061°28'10116.9
2018-Feb-18 02:00N 16°12' W 062°12'4201.8 060 / 271017.1 5.4 25.0 27.0
2018-Feb-18 01:58N 16°12' W 062°16'816.2
2018-Feb-18 01:30N 16°19' W 062°20'816.2
2018-Feb-18 01:00N 16°26' W 062°24'915.9
2018-Feb-18 00:28N 16°34' W 062°28'715.9
2018-Feb-18 00:01N 16°40' W 062°31'39 2.9
2018-Feb-17 10:44N 17°16' W 062°46'313.3
2018-Feb-17 10:29N 17°18' W 062°49'814.0
2018-Feb-17 09:53N 17°24' W 062°55'615.2
2018-Feb-17 09:27N 17°30' W 062°54'10814.4
2018-Feb-17 02:00N 19°18' W 063°00'27117.0 050 / 321020.1 5.4 24.0 27.0
2018-Feb-16 10:00N 23°36' W 064°30'16019.9 080 / 181020.110.8 23.0 25.0
2018-Feb-16 02:00N 26°06' W 065°30'31219.5 050 / 151024.1 5.4 22.0 26.0
2018-Feb-15 10:00N 31°00' W 067°30'15422.1 270 / 61024.110.8 20.0
2018-Feb-15 03:00N 33°24' W 068°36'32719.3 070 / 91026.1 5.4 19.0 21.0
2018-Feb-14 10:00N 38°24' W 071°18'12622.4 210 / 151027.110.8 15.0
2018-Feb-14 04:20N 39°54' W 073°12'820.8
2018-Feb-14 03:56N 40°01' W 073°20'920.6
2018-Feb-14 03:30N 40°07' W 073°27'918.7
2018-Feb-14 03:00N 40°14' W 073°35'610.3
2018-Feb-14 02:27N 40°18' W 073°40'5 9.8
2018-Feb-14 01:56N 40°22' W 073°45'4 9.1
2018-Feb-14 01:28N 40°25' W 073°48'4 9.1
2018-Feb-14 00:59N 40°28' W 073°53'510.7
2018-Feb-14 00:29N 40°31' W 073°59'613.0
2018-Feb-14 00:00N 40°36' W 074°03'510.7
2018-Feb-13 23:30N 40°42' W 074°02'5 9.4
2018-Feb-13 23:00N 40°46' W 074°00'0 0.5
2018-Feb-13 22:30N 40°46' W 073°60'0 0.0
2018-Feb-13 22:00N 40°46' W 073°60'0 0.0
2018-Feb-13 21:30N 40°46' W 073°60'0 0.0
2018-Feb-13 21:00N 40°46' W 073°60'0 0.0
2018-Feb-13 20:30N 40°46' W 073°60'0 0.0
2018-Feb-13 20:00N 40°46' W 073°60'0 0.0
2018-Feb-13 19:30N 40°46' W 073°60'0 0.0
2018-Feb-13 19:00N 40°46' W 073°60'0 0.0
2018-Feb-13 18:30N 40°46' W 073°60'0 0.0
2018-Feb-13 18:01N 40°46' W 073°60'0 0.0
2018-Feb-13 17:30N 40°46' W 073°60'0 0.0
2018-Feb-13 17:00N 40°46' W 073°60'0 0.0
2018-Feb-13 16:30N 40°46' W 073°60'0 0.0
2018-Feb-13 16:01N 40°46' W 073°60'0 0.0
2018-Feb-13 15:30N 40°46' W 073°60'0 0.0
2018-Feb-13 15:01N 40°46' W 073°60'0 0.0
2018-Feb-13 14:30N 40°46' W 073°60'0 0.0
2018-Feb-13 14:00N 40°46' W 073°60'1 2.3
2018-Feb-13 13:30N 40°45' W 074°01'713.2
2018-Feb-13 13:00N 40°39' W 074°03'814.9
2018-Feb-13 12:30N 40°32' W 074°01'612.7
2018-Feb-13 12:00N 40°29' W 073°53'4 8.8
2018-Feb-13 11:30N 40°27' W 073°48'5 8.8
2018-Feb-13 10:59N 40°24' W 073°43'5 9.7
2018-Feb-13 10:28N 40°21' W 073°38'11517.8
2018-Feb-13 04:00N 38°36' W 072°36'8917.7 330 / 201034.1 5.4 7.0 13.0
2018-Feb-12 23:00N 37°12' W 072°00'45421.6 010 / 251026.1 5.4 13.0
2018-Feb-12 02:00N 30°00' W 069°12'9423.4 120 / 221030.1 5.4 22.0 24.0
2018-Feb-11 22:00N 28°30' W 068°42'27222.7 110 / 181027.110.8 24.0 22.0
2018-Feb-11 10:00N 24°12' W 067°06'   100 / 321023.110.8 24.0 25.0
Track history (hours):
 
Tides and Currents Weather Stations Pressure Air Temp Water Temp Dewpoint Dewpoint Depression Visibility Wind Speed Wind Dir Waves Ship Positions

Norwegian Gem (Bahamas)

Last reported at 2018-Feb-21 03:30 UTC. Time now 2018-Feb-21 17:41 UTC.
Position N 17°56' W 063°44'.

Length 294 m; draft 8.6 m.

Type: Ship. MMSI: 309951000.

Date/timePositionNaut miles runAvg speedWind from/ knotsBaromVisibWave heightAir tempDewpointWater temp
2018-Feb-21 03:30N 17°56' W 063°44'1723.2
2018-Feb-21 02:46N 17°51' W 063°26'922.9
2018-Feb-21 02:22N 17°48' W 063°17'923.2
2018-Feb-21 01:59N 17°44' W 063°09'1423.0
2018-Feb-21 01:23N 17°38' W 062°56'2323.0
2018-Feb-21 00:24N 17°29' W 062°34'922.7
2018-Feb-21 00:00N 17°26' W 062°25'1122.6
2018-Feb-20 23:30N 17°19' W 062°16'1122.9
2018-Feb-20 23:00N 17°14' W 062°05'1121.9
2018-Feb-20 22:30N 17°09' W 061°55'4 7.9
2018-Feb-20 22:00N 17°07' W 061°51'0 0.6
2018-Feb-20 21:30N 17°07' W 061°51'0 0.0
2018-Feb-20 21:00N 17°07' W 061°51'0 0.0
2018-Feb-20 20:30N 17°07' W 061°51'0 0.0
2018-Feb-20 20:00N 17°07' W 061°51'0 0.0
2018-Feb-20 19:30N 17°07' W 061°51'0 0.0
2018-Feb-20 19:00N 17°07' W 061°51'0 0.0
2018-Feb-20 18:30N 17°07' W 061°51'0 0.0
2018-Feb-20 18:00N 17°07' W 061°51'0 0.0
2018-Feb-20 17:30N 17°07' W 061°51'0 0.0
2018-Feb-20 17:00N 17°07' W 061°51'0 0.0
2018-Feb-20 16:30N 17°07' W 061°51'0 0.0
2018-Feb-20 16:00N 17°07' W 061°51'0 0.0
2018-Feb-20 15:30N 17°07' W 061°51'0 0.0
2018-Feb-20 15:00N 17°07' W 061°51'0 0.0
2018-Feb-20 14:30N 17°07' W 061°51'0 0.0
2018-Feb-20 14:00N 17°07' W 061°51'0 0.4
2018-Feb-20 13:30N 17°07' W 061°51'3 6.9
2018-Feb-20 13:00N 17°09' W 061°54'816.4
2018-Feb-20 12:30N 17°11' W 062°03'917.2
2018-Feb-20 11:59N 17°03' W 062°07'1122.5
2018-Feb-20 11:30N 16°52' W 062°04'1122.5
2018-Feb-20 11:00N 16°41' W 062°02'1121.1
2018-Feb-20 10:30N 16°30' W 062°03'1019.3
2018-Feb-20 10:00N 16°21' W 062°04'1119.8
2018-Feb-20 09:28N 16°10' W 062°03'9020.8
2018-Feb-20 05:09N 14°44' W 061°35'820.6
2018-Feb-20 04:44N 14°36' W 061°33'521.2
2018-Feb-20 04:30N 14°31' W 061°31'6325.1
2018-Feb-20 02:00N 13°36' W 061°00'4 8.6 070 / 271016.1 5.4 25.0 28.0
2018-Feb-20 01:33N 13°34' W 060°56'28 1.2
2018-Feb-19 03:00N 13°24' W 060°30'47 4.8 030 / 381014.1 5.4 25.0 28.0
2018-Feb-18 17:22N 14°01' W 060°59'0 0.0
2018-Feb-18 16:04N 14°01' W 060°59'0 0.0
2018-Feb-18 15:36N 14°01' W 060°59'0 0.0
2018-Feb-18 15:16N 14°01' W 060°59'0 0.0
2018-Feb-18 14:48N 14°01' W 060°59'0 0.0
2018-Feb-18 11:11N 14°01' W 060°59'0 1.8
2018-Feb-18 10:57N 14°01' W 060°60'4 9.0
2018-Feb-18 10:29N 14°03' W 061°03'815.3
2018-Feb-18 10:00N 14°07' W 061°10'815.4
2018-Feb-18 09:30N 14°14' W 061°14'917.3
2018-Feb-18 08:59N 14°22' W 061°18'1020.4
2018-Feb-18 08:31N 14°30' W 061°23'1120.9
2018-Feb-18 07:58N 14°40' W 061°28'10116.9
2018-Feb-18 02:00N 16°12' W 062°12'4201.8 060 / 271017.1 5.4 25.0 27.0
2018-Feb-18 01:58N 16°12' W 062°16'816.2
2018-Feb-18 01:30N 16°19' W 062°20'816.2
2018-Feb-18 01:00N 16°26' W 062°24'915.9
2018-Feb-18 00:28N 16°34' W 062°28'715.9
2018-Feb-18 00:01N 16°40' W 062°31'39 2.9
2018-Feb-17 10:44N 17°16' W 062°46'313.3
2018-Feb-17 10:29N 17°18' W 062°49'814.0
2018-Feb-17 09:53N 17°24' W 062°55'615.2
2018-Feb-17 09:27N 17°30' W 062°54'10814.4
2018-Feb-17 02:00N 19°18' W 063°00'27117.0 050 / 321020.1 5.4 24.0 27.0
2018-Feb-16 10:00N 23°36' W 064°30'16019.9 080 / 181020.110.8 23.0 25.0
2018-Feb-16 02:00N 26°06' W 065°30'31219.5 050 / 151024.1 5.4 22.0 26.0
2018-Feb-15 10:00N 31°00' W 067°30'15422.1 270 / 61024.110.8 20.0
2018-Feb-15 03:00N 33°24' W 068°36'32719.3 070 / 91026.1 5.4 19.0 21.0
2018-Feb-14 10:00N 38°24' W 071°18'12622.4 210 / 151027.110.8 15.0
2018-Feb-14 04:20N 39°54' W 073°12'820.8
2018-Feb-14 03:56N 40°01' W 073°20'920.6
2018-Feb-14 03:30N 40°07' W 073°27'918.7
2018-Feb-14 03:00N 40°14' W 073°35'610.3
2018-Feb-14 02:27N 40°18' W 073°40'5 9.8
2018-Feb-14 01:56N 40°22' W 073°45'4 9.1
2018-Feb-14 01:28N 40°25' W 073°48'4 9.1
2018-Feb-14 00:59N 40°28' W 073°53'510.7
2018-Feb-14 00:29N 40°31' W 073°59'613.0
2018-Feb-14 00:00N 40°36' W 074°03'510.7
2018-Feb-13 23:30N 40°42' W 074°02'5 9.4
2018-Feb-13 23:00N 40°46' W 074°00'0 0.5
2018-Feb-13 22:30N 40°46' W 073°60'0 0.0
2018-Feb-13 22:00N 40°46' W 073°60'0 0.0
2018-Feb-13 21:30N 40°46' W 073°60'0 0.0
2018-Feb-13 21:00N 40°46' W 073°60'0 0.0
2018-Feb-13 20:30N 40°46' W 073°60'0 0.0
2018-Feb-13 20:00N 40°46' W 073°60'0 0.0
2018-Feb-13 19:30N 40°46' W 073°60'0 0.0
2018-Feb-13 19:00N 40°46' W 073°60'0 0.0
2018-Feb-13 18:30N 40°46' W 073°60'0 0.0
2018-Feb-13 18:01N 40°46' W 073°60'0 0.0
2018-Feb-13 17:30N 40°46' W 073°60'0 0.0
2018-Feb-13 17:00N 40°46' W 073°60'0 0.0
2018-Feb-13 16:30N 40°46' W 073°60'0 0.0
2018-Feb-13 16:01N 40°46' W 073°60'0 0.0
2018-Feb-13 15:30N 40°46' W 073°60'0 0.0
2018-Feb-13 15:01N 40°46' W 073°60'0 0.0
2018-Feb-13 14:30N 40°46' W 073°60'0 0.0
2018-Feb-13 14:00N 40°46' W 073°60'1 2.3
2018-Feb-13 13:30N 40°45' W 074°01'713.2
2018-Feb-13 13:00N 40°39' W 074°03'814.9
2018-Feb-13 12:30N 40°32' W 074°01'612.7
2018-Feb-13 12:00N 40°29' W 073°53'4 8.8
2018-Feb-13 11:30N 40°27' W 073°48'5 8.8
2018-Feb-13 10:59N 40°24' W 073°43'5 9.7
2018-Feb-13 10:28N 40°21' W 073°38'11517.8
2018-Feb-13 04:00N 38°36' W 072°36'8917.7 330 / 201034.1 5.4 7.0 13.0
2018-Feb-12 23:00N 37°12' W 072°00'45421.6 010 / 251026.1 5.4 13.0
2018-Feb-12 02:00N 30°00' W 069°12'9423.4 120 / 221030.1 5.4 22.0 24.0
2018-Feb-11 22:00N 28°30' W 068°42'27222.7 110 / 181027.110.8 24.0 22.0
2018-Feb-11 10:00N 24°12' W 067°06'   100 / 321023.110.8 24.0 25.0

Dump ship's entire track history